Time;durP1;ratioP1;P1;durP2;ratioP2;P2;SDS_P1;SDS_P2;PMS_P1;PMS_P2;Temp;Humidity;BMP_temperature;BMP_pressure;BME280_temperature;BME280_humidity;BME280_pressure;Samples;Min_cycle;Max_cycle;Signal;HPM_P1;HPM_P2
2021/04/01 00:01:47;;;;;;;10.80;9.68;;;;;;;16.75;39.64;100430.06;10363953;28;20049;-58
2021/04/01 00:06:48;;;;;;;10.57;9.30;;;;;;;16.65;39.91;100416.75;10369406;28;20270;-59
2021/04/01 00:11:49;;;;;;;10.32;8.95;;;;;;;16.64;40.00;100409.69;10374917;28;20155;-59
2021/04/01 00:16:51;;;;;;;12.93;9.00;;;;;;;16.43;40.35;100402.00;10374533;28;20057;-60
2021/04/01 00:21:51;;;;;;;11.35;8.95;;;;;;;16.40;40.62;100407.69;10378650;28;20049;-62
2021/04/01 00:26:52;;;;;;;11.13;8.48;;;;;;;16.33;41.14;100407.47;10376293;28;20050;-61
2021/04/01 00:31:54;;;;;;;10.48;8.48;;;;;;;16.32;40.99;100399.56;10375519;28;20056;-59
2021/04/01 00:36:55;;;;;;;9.63;7.97;;;;;;;16.17;41.54;100410.88;10373809;28;20053;-60
2021/04/01 00:41:56;;;;;;;10.70;8.25;;;;;;;16.08;42.03;100401.91;10373923;28;20108;-61
2021/04/01 00:46:57;;;;;;;10.00;8.02;;;;;;;15.94;42.08;100397.09;10369421;28;20053;-59
2021/04/01 00:51:58;;;;;;;10.43;8.57;;;;;;;15.85;42.35;100403.41;10373655;28;20053;-59
2021/04/01 00:56:59;;;;;;;10.10;7.75;;;;;;;15.80;42.73;100406.53;10368564;28;20126;-58
2021/04/01 01:02:04;;;;;;;11.20;7.38;;;;;;;15.74;42.89;100393.72;10357666;28;20053;-58
2021/04/01 01:07:05;;;;;;;9.35;8.35;;;;;;;15.73;42.91;100400.94;10381187;28;20414;-59
2021/04/01 01:12:06;;;;;;;8.00;7.20;;;;;;;15.63;43.32;100399.31;10372567;28;20180;-58
2021/04/01 01:17:07;;;;;;;10.30;8.52;;;;;;;15.53;43.24;100400.22;10372035;28;20159;-58
2021/04/01 01:22:08;;;;;;;9.90;8.23;;;;;;;15.39;43.56;100398.06;10374306;28;20057;-59
2021/04/01 01:27:10;;;;;;;10.48;8.68;;;;;;;15.32;44.23;100391.63;10380438;28;20509;-63
2021/04/01 01:32:11;;;;;;;10.25;9.05;;;;;;;15.38;44.10;100388.34;10380345;28;20110;-59
2021/04/01 01:37:13;;;;;;;11.02;9.93;;;;;;;15.25;44.51;100395.91;10380378;28;20054;-66
2021/04/01 01:42:14;;;;;;;10.82;9.82;;;;;;;15.22;44.45;100393.50;10383371;28;20071;-60
2021/04/01 01:47:15;;;;;;;11.63;9.48;;;;;;;15.17;44.60;100394.78;10387245;28;20045;-59
2021/04/01 01:52:16;;;;;;;12.43;9.65;;;;;;;15.19;44.55;100392.84;10390590;28;20056;-60
2021/04/01 01:57:17;;;;;;;11.07;10.02;;;;;;;15.14;44.80;100389.75;10388685;28;20046;-58
2021/04/01 02:02:18;;;;;;;9.88;8.93;;;;;;;15.11;44.86;100390.03;10384244;28;20057;-59
2021/04/01 02:07:19;;;;;;;9.88;8.88;;;;;;;15.05;45.20;100401.38;10382336;28;20048;-59
2021/04/01 02:12:20;;;;;;;10.70;8.38;;;;;;;14.94;45.55;100398.91;10381351;28;20071;-59
2021/04/01 02:17:23;;;;;;;11.45;8.52;;;;;;;14.91;45.48;100401.88;10388296;28;20568;-58
2021/04/01 02:22:24;;;;;;;12.60;9.25;;;;;;;14.83;45.40;100407.94;10391081;28;20045;-59
2021/04/01 02:27:26;;;;;;;13.15;9.00;;;;;;;14.92;45.52;100406.22;10371510;28;20077;-61
2021/04/01 02:32:27;;;;;;;9.00;8.10;;;;;;;14.70;45.63;100399.41;10371104;28;20065;-60
2021/04/01 02:37:28;;;;;;;9.20;8.13;;;;;;;14.73;45.86;100399.97;10382673;28;20150;-59
2021/04/01 02:42:29;;;;;;;11.77;7.93;;;;;;;14.51;45.85;100395.78;10380789;28;20049;-60
2021/04/01 02:47:29;;;;;;;11.93;9.05;;;;;;;14.40;46.32;100412.84;10379914;28;20056;-59
2021/04/01 02:52:30;;;;;;;10.48;8.52;;;;;;;14.37;46.36;100396.25;10371050;28;20284;-58
2021/04/01 02:57:31;;;;;;;14.48;8.95;;;;;;;14.21;46.88;100403.03;10382496;28;20349;-59
2021/04/01 03:02:33;;;;;;;13.73;9.00;;;;;;;14.01;47.35;100402.22;10379629;28;20065;-58
2021/04/01 03:07:35;;;;;;;10.85;8.90;;;;;;;13.87;47.43;100391.94;10377660;28;20119;-60
2021/04/01 03:12:39;;;;;;;;;;;;;;;13.74;48.24;100398.41;10363503;28;20055;-58
2021/04/01 03:17:41;;;;;;;13.00;9.13;;;;;;;13.67;48.65;100394.59;10384738;28;20389;-60
2021/04/01 03:22:43;;;;;;;11.52;9.13;;;;;;;13.57;48.86;100393.75;10382181;28;20068;-58
2021/04/01 03:27:44;;;;;;;10.00;8.50;;;;;;;13.55;49.09;100395.72;10375329;28;20041;-57
2021/04/01 03:32:48;;;;;;;8.93;8.02;;;;;;;13.60;49.26;100401.50;10379530;28;20390;-58
2021/04/01 03:37:53;;;;;;;9.70;8.70;;;;;;;13.54;49.05;100407.41;10377625;28;20041;-57
2021/04/01 03:42:54;;;;;;;8.98;8.07;;;;;;;13.59;49.08;100394.47;10372238;28;20049;-57
2021/04/01 03:47:55;;;;;;;10.27;7.93;;;;;;;13.50;49.16;100406.00;10358726;28;20057;-58
2021/04/01 03:52:56;;;;;;;8.63;7.72;;;;;;;13.44;49.28;100402.88;10378842;28;20117;-57
2021/04/01 03:58:11;;;;;;;11.18;8.88;;;;;;;13.47;49.62;100406.28;10377547;28;20053;-58
2021/04/01 04:08:52;;;;;;;12.32;10.68;;;;;;;13.40;50.01;100416.69;10367375;28;20108;-59
2021/04/01 04:19:12;;;;;;;10.38;8.15;;;;;;;13.30;49.93;100421.97;10379750;28;20452;-58
2021/04/01 04:24:13;;;;;;;9.90;8.35;;;;;;;13.27;49.95;100414.25;10383253;28;20057;-59
2021/04/01 04:29:15;;;;;;;10.82;8.77;;;;;;;13.24;49.92;100419.84;10381789;28;20044;-59
2021/04/01 04:34:16;;;;;;;15.20;9.02;;;;;;;13.26;49.99;100408.03;10380789;28;20064;-58
2021/04/01 04:39:17;;;;;;;11.77;7.75;;;;;;;13.23;49.69;100413.66;10384437;28;20053;-60
2021/04/01 04:44:18;;;;;;;10.75;8.20;;;;;;;13.02;50.33;100407.56;10381667;28;20122;-59
2021/04/01 04:49:19;;;;;;;12.45;7.75;;;;;;;13.06;50.21;100411.63;10375775;28;20059;-59
2021/04/01 04:54:20;;;;;;;10.90;9.38;;;;;;;12.97;50.67;100417.78;10381343;28;20052;-60
2021/04/01 04:59:29;;;;;;;10.15;8.80;;;;;;;12.99;50.84;100410.50;10375055;28;20041;-60
2021/04/01 05:09:41;;;;;;;8.77;7.60;;;;;;;12.77;51.17;100414.19;10375047;28;20049;-61
2021/04/01 05:14:42;;;;;;;9.95;7.93;;;;;;;12.73;51.17;100414.47;10372765;28;20049;-60
2021/04/01 05:19:44;;;;;;;12.70;8.77;;;;;;;12.74;51.67;100420.66;10384824;28;20128;-59
2021/04/01 05:24:45;;;;;;;8.43;7.50;;;;;;;12.95;50.88;100425.94;10383900;28;20099;-60
2021/04/01 05:30:01;;;;;;;11.00;8.32;;;;;;;12.97;50.86;100429.34;10380770;28;20468;-60
2021/04/01 05:35:08;;;;;;;11.00;9.35;;;;;;;12.88;51.21;100420.28;10374553;28;20057;-59
2021/04/01 05:40:12;;;;;;;11.15;8.88;;;;;;;12.83;51.51;100429.69;10388826;28;20149;-60
2021/04/01 05:50:36;;;;;;;15.45;8.77;;;;;;;13.05;50.80;100437.50;10397179;28;20120;-62
2021/04/01 05:56:36;;;;;;;9.68;8.60;;;;;;;13.12;50.49;100453.00;10359203;28;20116;-59
2021/04/01 06:07:02;;;;;;;15.15;8.43;;;;;;;13.16;50.45;100452.59;10355272;28;20034;-59
2021/04/01 06:12:04;;;;;;;14.95;8.93;;;;;;;13.23;50.49;100451.06;10378381;28;20167;-58
2021/04/01 06:17:08;;;;;;;13.02;9.00;;;;;;;13.25;50.23;100456.28;10387804;28;20685;-59
2021/04/01 06:22:09;;;;;;;17.73;10.02;;;;;;;13.32;50.24;100465.47;10390728;28;20413;-64
2021/04/01 06:27:30;;;;;;;11.20;9.50;;;;;;;13.40;50.00;100465.63;10369817;28;20053;-66
2021/04/01 06:32:34;;;;;;;16.65;9.88;;;;;;;13.60;49.48;100471.03;10377916;28;20049;-60
2021/04/01 06:38:02;;;;;;;26.80;13.40;;;;;;;13.73;49.16;100476.97;10386195;28;20119;-60
2021/04/01 06:43:19;;;;;;;17.60;10.90;;;;;;;13.86;48.88;100487.41;10379841;28;20172;-60
2021/04/01 06:48:24;;;;;;;15.35;9.93;;;;;;;13.97;48.38;100491.78;10385825;28;20430;-60
2021/04/01 07:04:35;;;;;;;13.15;9.60;;;;;;;14.05;48.86;100488.41;10387028;28;20037;-60
2021/04/01 07:14:41;;;;;;;13.52;11.23;;;;;;;14.42;48.23;100472.47;10402307;28;20049;-60
2021/04/01 07:20:19;;;;;;;14.40;10.85;;;;;;;14.63;47.79;100476.84;10412618;28;20487;-60
2021/04/01 07:35:58;;;;;;;13.50;10.55;;;;;;;15.20;46.19;100474.09;10380383;28;20449;-60
2021/04/01 07:46:33;;;;;;;11.52;10.32;;;;;;;15.41;45.92;100460.44;10384702;28;20572;-61
2021/04/01 07:56:50;;;;;;;13.20;10.88;;;;;;;15.84;44.96;100477.72;10377477;28;20041;-59
2021/04/01 08:07:14;;;;;;;13.52;10.05;;;;;;;16.13;44.90;100470.44;10382873;28;20045;-62
2021/04/01 08:12:26;;;;;;;13.48;10.70;;;;;;;16.38;44.27;100476.88;10381377;28;20116;-59
2021/04/01 08:17:36;;;;;;;13.00;10.63;;;;;;;16.53;43.93;100464.53;10374556;28;20100;-60
2021/04/01 08:22:45;;;;;;;15.80;11.60;;;;;;;16.60;44.07;100467.44;10376903;28;20049;-60
2021/04/01 08:28:22;;;;;;;16.30;10.93;;;;;;;16.71;43.94;100475.25;10376511;28;20065;-61
2021/04/01 08:39:19;;;;;;;15.23;11.55;;;;;;;17.20;42.99;100463.91;10376488;28;20047;-60
2021/04/01 08:45:16;;;;;;;10.70;9.80;;;;;;;17.47;42.72;100470.94;10376189;28;20106;-60
2021/04/01 08:50:33;;;;;;;19.55;12.57;;;;;;;17.84;42.50;100466.16;10370028;28;20052;-59
2021/04/01 08:55:41;;;;;;;13.05;11.73;;;;;;;18.45;41.22;100463.16;10383307;28;20135;-59
2021/04/01 09:00:43;;;;;;;19.45;11.68;;;;;;;18.83;40.38;100452.66;10376299;28;20041;-59
2021/04/01 09:05:54;;;;;;;15.70;12.07;;;;;;;19.07;39.76;100436.41;10381278;28;20049;-59
2021/04/01 09:10:58;;;;;;;13.95;12.25;;;;;;;19.65;38.20;100438.84;10360858;28;20061;-59
2021/04/01 09:21:02;;;;;;;19.20;13.07;;;;;;;19.91;37.25;100437.69;10379188;28;19921;-58
2021/04/01 09:26:09;;;;;;;24.20;13.77;;;;;;;20.42;36.51;100440.63;10375692;28;20560;-61
2021/04/01 09:31:14;;;;;;;19.55;13.35;;;;;;;20.64;35.74;100422.66;10378948;28;20157;-58
2021/04/01 09:36:22;;;;;;;19.95;13.55;;;;;;;21.33;34.71;100421.53;10377303;28;20115;-59
2021/04/01 09:41:28;;;;;;;20.65;14.95;;;;;;;21.86;33.31;100426.69;10370349;28;20406;-59
2021/04/01 09:46:29;;;;;;;22.40;14.27;;;;;;;22.59;32.44;100422.94;10381333;28;20046;-59
2021/04/01 09:51:32;;;;;;;25.05;13.90;;;;;;;23.09;31.40;100409.25;10376375;28;20045;-60
2021/04/01 09:56:33;;;;;;;24.83;15.57;;;;;;;23.67;30.38;100416.97;10379536;28;20065;-60
2021/04/01 10:01:35;;;;;;;24.65;16.35;;;;;;;23.63;29.85;100416.53;10370246;28;20045;-59
2021/04/01 10:06:43;;;;;;;22.17;15.77;;;;;;;24.31;28.89;100420.19;10369809;28;20175;-60
2021/04/01 10:11:53;;;;;;;25.85;16.65;;;;;;;25.27;27.49;100416.00;10391550;28;20041;-60
2021/04/01 10:17:09;;;;;;;22.38;14.27;;;;;;;26.58;26.67;100415.53;10368902;22;20052;-61
2021/04/01 10:22:21;;;;;;;26.75;17.05;;;;;;;29.65;21.90;100403.44;10326362;28;20065;-61
2021/04/01 10:27:34;;;;;;;24.55;16.58;;;;;;;31.65;19.41;100392.56;10344169;28;20133;-61
2021/04/01 10:32:42;;;;;;;26.23;16.40;;;;;;;31.72;19.52;100393.19;10342920;28;20112;-61
2021/04/01 10:37:49;;;;;;;27.65;17.83;;;;;;;30.11;20.89;100385.88;10335192;28;20140;-62
2021/04/01 10:43:04;;;;;;;27.67;19.05;;;;;;;29.76;20.99;100391.56;10341176;28;20128;-62
2021/04/01 10:48:33;;;;;;;24.75;16.80;;;;;;;31.90;19.32;100385.63;10342428;28;20130;-61
2021/04/01 10:53:40;;;;;;;22.02;17.42;;;;;;;35.50;15.38;100382.47;10338134;28;20516;-61
2021/04/01 10:58:55;;;;;;;24.27;17.67;;;;;;;38.15;13.68;100384.28;10344472;28;20131;-61
2021/04/01 11:03:58;;;;;;;26.23;18.67;;;;;;;39.12;12.69;100375.16;10333699;28;20518;-59
2021/04/01 11:09:01;;;;;;;23.48;18.23;;;;;;;40.03;12.49;100367.72;10324811;28;20045;-59
2021/04/01 11:14:02;;;;;;;22.33;17.23;;;;;;;40.44;11.24;100363.81;10318254;28;20188;-59
2021/04/01 11:19:05;;;;;;;20.08;17.15;;;;;;;40.44;11.61;100347.06;10306884;28;20066;-60
2021/04/01 11:24:07;;;;;;;22.95;17.50;;;;;;;41.15;11.08;100346.09;10322500;28;20220;-58
2021/04/01 11:29:12;;;;;;;24.00;18.58;;;;;;;42.12;10.88;100334.81;10321904;28;20137;-60
2021/04/01 11:34:14;;;;;;;19.95;17.83;;;;;;;42.29;10.20;100317.16;10319491;28;20069;-60
2021/04/01 11:39:37;;;;;;;23.95;18.58;;;;;;;43.24;9.62;100312.06;10319624;28;20238;-59
2021/04/01 11:44:39;;;;;;;26.83;20.17;;;;;;;40.11;10.77;100304.78;10313353;28;20113;-60
2021/04/01 11:49:40;;;;;;;28.30;19.63;;;;;;;41.94;10.00;100292.13;10324412;28;20081;-59
2021/04/01 11:54:42;;;;;;;26.15;19.02;;;;;;;43.31;8.39;100297.53;10323288;28;20046;-60
2021/04/01 11:59:56;;;;;;;22.85;16.98;;;;;;;44.59;7.41;100285.44;10324378;28;20136;-60
2021/04/01 12:05:00;;;;;;;19.45;15.68;;;;;;;44.07;7.29;100282.22;10321041;28;20299;-60
2021/04/01 12:10:02;;;;;;;18.30;14.85;;;;;;;44.71;6.96;100277.06;10317557;28;20140;-59
2021/04/01 12:15:04;;;;;;;17.63;13.27;;;;;;;45.18;6.28;100270.00;10321354;28;20136;-59
2021/04/01 12:20:09;;;;;;;13.95;9.95;;;;;;;44.78;6.71;100260.41;10322129;28;20203;-60
2021/04/01 12:25:16;;;;;;;13.38;9.98;;;;;;;45.37;5.44;100258.06;10319489;28;20475;-60
2021/04/01 12:30:27;;;;;;;16.35;10.98;;;;;;;45.25;5.63;100261.78;10319564;28;20049;-60
2021/04/01 12:35:28;;;;;;;12.07;9.88;;;;;;;45.47;6.18;100259.56;10313822;28;20133;-61
2021/04/01 12:40:36;;;;;;;13.80;10.60;;;;;;;45.47;6.22;100251.94;10308532;28;20065;-60
2021/04/01 12:45:38;;;;;;;12.07;10.88;;;;;;;45.62;5.97;100247.50;10317024;28;20388;-61
2021/04/01 12:50:43;;;;;;;19.45;13.27;;;;;;;45.33;6.31;100241.13;10317039;28;20046;-60
2021/04/01 12:55:56;;;;;;;14.00;12.52;;;;;;;44.45;6.16;100238.16;10316698;28;20127;-58
2021/04/01 13:01:05;;;;;;;14.95;12.27;;;;;;;43.89;6.45;100219.13;10300501;28;20129;-58
2021/04/01 13:06:12;;;;;;;17.15;13.77;;;;;;;43.03;7.22;100223.34;10314697;28;20396;-59
2021/04/01 13:11:14;;;;;;;14.60;12.35;;;;;;;39.20;9.51;100209.38;10314460;28;20148;-60
2021/04/01 13:16:15;;;;;;;17.27;12.48;;;;;;;36.73;11.52;100214.19;10315859;28;20042;-59
2021/04/01 13:26:51;;;;;;;13.60;9.23;;;;;;;34.98;12.32;100193.88;10269851;28;20115;-58
2021/04/01 13:31:57;;;;;;;13.52;8.85;;;;;;;34.24;13.60;100202.03;10310564;28;20129;-58
2021/04/01 13:47:55;;;;;;;14.02;10.55;;;;;;;32.96;14.27;100181.78;10291991;28;20254;-60
2021/04/01 13:58:17;;;;;;;14.75;10.25;;;;;;;30.82;16.17;100175.63;10309764;28;20065;-60
2021/04/01 14:04:02;;;;;;;15.15;10.32;;;;;;;31.23;16.42;100170.53;10311261;28;20054;-59
2021/04/01 14:09:18;;;;;;;10.48;5.45;;;;;;;31.31;15.08;100161.78;10316082;28;20057;-60
2021/04/01 14:14:19;;;;;;;8.20;3.53;;;;;;;30.63;14.59;100158.69;10308037;28;20279;-59
2021/04/01 14:19:24;;;;;;;6.00;3.70;;;;;;;30.42;14.71;100163.97;10318304;28;20050;-59
2021/04/01 14:24:36;;;;;;;10.02;3.88;;;;;;;29.26;15.81;100168.41;10306788;28;20300;-60
2021/04/01 14:29:38;;;;;;;9.13;3.93;;;;;;;29.17;16.30;100167.94;10307751;28;20053;-60
2021/04/01 14:34:40;;;;;;;7.45;4.45;;;;;;;28.50;16.40;100160.44;10303343;28;20061;-59
2021/04/01 14:39:41;;;;;;;8.55;4.55;;;;;;;27.63;16.88;100173.09;10326616;28;20049;-60
2021/04/01 14:44:42;;;;;;;7.30;4.05;;;;;;;27.43;16.83;100171.53;10324579;28;20073;-61
2021/04/01 14:49:44;;;;;;;11.80;5.45;;;;;;;27.06;17.55;100166.22;10323749;28;20084;-59
2021/04/01 14:54:46;;;;;;;11.02;3.78;;;;;;;26.74;17.94;100169.25;10320815;28;20104;-60
2021/04/01 14:59:48;;;;;;;9.05;3.67;;;;;;;26.71;17.69;100155.22;10321726;28;20136;-60
2021/04/01 15:04:51;;;;;;;9.33;3.77;;;;;;;26.71;18.28;100153.34;10302686;28;20096;-65
2021/04/01 15:09:52;;;;;;;9.65;4.82;;;;;;;26.48;19.33;100154.03;10301873;28;20042;-60
2021/04/01 15:14:54;;;;;;;10.77;5.20;;;;;;;26.13;19.67;100156.63;10319576;28;20049;-59
2021/04/01 15:19:59;;;;;;;16.00;5.10;;;;;;;25.63;20.69;100158.38;10319419;28;20054;-60
2021/04/01 15:25:00;;;;;;;13.48;6.78;;;;;;;25.54;21.06;100154.28;10318429;28;20070;-60
2021/04/01 15:30:02;;;;;;;12.70;6.70;;;;;;;25.26;21.87;100152.81;10316106;28;20058;-59
2021/04/01 15:35:05;;;;;;;11.48;6.32;;;;;;;25.22;21.84;100147.00;10319529;28;20081;-60
2021/04/01 15:40:09;;;;;;;12.90;6.15;;;;;;;25.23;22.24;100148.66;10301323;28;20053;-58
2021/04/01 15:45:11;;;;;;;12.25;6.53;;;;;;;25.18;22.40;100153.94;10318776;28;20084;-61
2021/04/01 15:50:13;;;;;;;10.65;5.90;;;;;;;25.20;22.29;100153.72;10319012;28;20142;-60
2021/04/01 15:55:14;;;;;;;14.23;7.18;;;;;;;24.90;22.59;100159.00;10317915;28;20046;-60
2021/04/01 16:00:17;;;;;;;11.50;7.78;;;;;;;24.96;23.04;100158.91;10318124;28;20115;-59
2021/04/01 16:05:18;;;;;;;16.73;8.03;;;;;;;24.99;23.02;100147.59;10316373;28;20112;-59
2021/04/01 16:10:19;;;;;;;13.75;7.60;;;;;;;24.73;23.56;100158.69;10317803;28;20227;-61
2021/04/01 16:15:20;;;;;;;15.88;7.13;;;;;;;24.68;23.87;100160.16;10322762;22;20060;-61
2021/04/01 16:20:21;;;;;;;15.90;7.10;;;;;;;24.56;24.06;100155.59;10300629;28;20164;-61
2021/04/01 16:25:22;;;;;;;17.83;6.88;;;;;;;24.23;24.40;100153.88;10308080;28;20074;-60
2021/04/01 16:30:25;;;;;;;12.73;7.85;;;;;;;23.96;25.02;100154.84;10310408;28;20046;-60
2021/04/01 16:35:27;;;;;;;13.90;6.85;;;;;;;23.93;25.27;100157.97;10314458;28;20050;-59
2021/04/01 16:40:28;;;;;;;15.57;7.65;;;;;;;23.82;25.71;100162.16;10293422;28;20518;-59
2021/04/01 16:45:29;;;;;;;19.45;9.25;;;;;;;23.56;25.91;100164.94;10310722;28;20089;-59
2021/04/01 16:50:31;;;;;;;21.45;14.45;;;;;;;23.54;26.21;100162.41;10304996;28;20156;-59
2021/04/01 16:55:35;;;;;;;16.80;7.70;;;;;;;23.40;27.21;100171.63;10314885;28;20105;-66
2021/04/01 17:00:37;;;;;;;15.73;8.50;;;;;;;23.23;27.44;100174.75;10317010;28;20136;-67
2021/04/01 17:05:39;;;;;;;12.82;8.40;;;;;;;23.01;27.79;100174.06;10314528;28;20729;-66
2021/04/01 17:10:40;;;;;;;15.30;8.73;;;;;;;22.88;28.21;100184.91;10296660;28;20574;-68
2021/04/01 17:15:42;;;;;;;19.13;10.35;;;;;;;22.74;28.52;100184.06;10305675;28;20054;-59
2021/04/01 17:20:43;;;;;;;22.73;10.70;;;;;;;22.52;28.97;100188.78;10305978;28;20061;-59
2021/04/01 17:25:54;;;;;;;19.67;11.20;;;;;;;22.46;29.33;100193.16;10307198;28;20058;-59
2021/04/01 17:30:55;;;;;;;28.70;13.15;;;;;;;22.25;29.66;100191.38;10300058;28;20053;-58
2021/04/01 17:35:56;;;;;;;22.75;13.25;;;;;;;22.19;29.96;100197.63;10289294;28;20061;-59
2021/04/01 17:40:56;;;;;;;21.95;13.27;;;;;;;22.11;30.48;100195.88;10291098;28;20053;-59
2021/04/01 17:45:58;;;;;;;21.42;13.85;;;;;;;21.85;30.96;100197.41;10306962;28;20053;-59
2021/04/01 17:51:00;;;;;;;23.08;14.27;;;;;;;21.80;31.27;100199.03;10305173;28;20057;-57
2021/04/01 17:56:05;;;;;;;23.48;13.25;;;;;;;21.76;31.99;100203.19;10307751;28;20056;-59
2021/04/01 18:01:12;;;;;;;18.35;14.30;;;;;;;21.65;31.54;100220.84;10308082;28;20193;-58
2021/04/01 18:22:14;;;;;;;20.60;16.00;;;;;;;21.51;34.08;100263.22;10319732;28;20160;-57
2021/04/01 18:27:40;;;;;;;32.10;22.95;;;;;;;21.49;35.13;100290.44;10305005;28;20624;-57
2021/04/01 18:32:50;;;;;;;28.25;22.65;;;;;;;21.51;35.03;100293.00;10298672;28;20050;-59
2021/04/01 18:38:15;;;;;;;34.72;26.58;;;;;;;21.30;36.13;100301.94;10309975;28;20050;-58
2021/04/01 18:43:17;;;;;;;38.25;30.92;;;;;;;21.17;36.68;100313.47;10299571;28;20418;-58
2021/04/01 18:53:33;;;;;;;37.17;31.17;;;;;;;21.01;36.65;100347.00;10314686;28;20096;-61
2021/04/01 19:03:41;;;;;;;39.85;30.38;;;;;;;19.80;37.89;100362.47;10305520;28;20072;-58
2021/04/01 19:08:48;;;;;;;;;;;;;;;19.38;37.99;100376.22;10321268;28;20569;-59
2021/04/01 19:24:46;;;;;;;27.30;23.08;;;;;;;18.99;39.42;100411.31;10316073;28;20080;-60
2021/04/01 19:29:51;;;;;;;23.63;20.02;;;;;;;18.88;40.34;100417.94;10314880;28;21336;-59
2021/04/01 19:34:55;;;;;;;21.63;16.65;;;;;;;18.63;40.44;100434.16;10307447;28;20503;-59
2021/04/01 19:39:56;;;;;;;;;;;;;;;18.38;41.88;100442.28;10317658;28;20081;-58
2021/04/01 19:45:10;;;;;;;20.23;16.67;;;;;;;18.34;41.76;100440.09;10319864;28;20364;-59
2021/04/01 19:50:14;;;;;;;15.85;13.43;;;;;;;17.90;42.69;100445.81;10312785;28;20053;-59
2021/04/01 19:55:24;;;;;;;14.15;11.50;;;;;;;17.72;43.04;100454.84;10316168;28;20466;-60
2021/04/01 20:00:35;;;;;;;14.02;9.40;;;;;;;17.51;43.88;100455.31;10312404;28;21302;-59
2021/04/01 20:05:37;;;;;;;11.13;6.75;;;;;;;17.35;43.33;100463.31;10313241;28;20049;-60
2021/04/01 20:10:39;;;;;;;11.63;7.20;;;;;;;17.08;43.75;100466.09;10316324;28;20108;-59
2021/04/01 20:15:47;;;;;;;10.10;6.20;;;;;;;17.03;44.11;100475.63;10313485;28;20054;-59
2021/04/01 20:20:49;;;;;;;8.73;5.80;;;;;;;17.01;43.62;100470.41;10313606;28;20129;-59
2021/04/01 20:25:50;;;;;;;7.32;5.15;;;;;;;16.98;44.04;100481.50;10315422;28;20133;-60
2021/04/01 20:30:51;;;;;;;8.10;4.85;;;;;;;16.96;43.78;100484.34;10313107;28;21613;-60
2021/04/01 20:35:53;;;;;;;6.90;4.70;;;;;;;16.80;43.69;100494.97;10311758;28;20162;-60
2021/04/01 20:40:54;;;;;;;6.47;4.07;;;;;;;16.67;43.90;100497.22;10313891;28;20054;-59
2021/04/01 20:45:56;;;;;;;57.63;46.30;;;;;;;16.42;44.09;100507.75;10311881;28;20058;-60
2021/04/01 20:50:57;;;;;;;6.10;4.18;;;;;;;16.36;43.88;100520.00;10291175;28;20204;-60
2021/04/01 20:55:59;;;;;;;4.68;3.70;;;;;;;16.23;43.93;100533.81;10316803;28;20404;-59
2021/04/01 21:01:01;;;;;;;5.65;3.60;;;;;;;16.02;44.63;100544.84;10316372;28;20109;-59
2021/04/01 21:06:04;;;;;;;4.43;3.88;;;;;;;15.98;44.61;100556.03;10335056;28;20054;-62
2021/04/01 21:11:06;;;;;;;4.63;4.03;;;;;;;15.93;43.71;100567.25;10325627;28;20054;-59
2021/04/01 21:16:08;;;;;;;5.47;3.95;;;;;;;15.83;44.13;100566.44;10325800;28;20054;-59
2021/04/01 21:21:10;;;;;;;5.05;3.38;;;;;;;15.66;43.42;100560.00;10315934;28;20107;-60
2021/04/01 21:26:11;;;;;;;5.00;3.22;;;;;;;15.66;42.92;100565.38;10335999;28;20050;-60
2021/04/01 21:31:12;;;;;;;3.85;3.45;;;;;;;15.54;42.67;100573.63;10335933;28;20056;-61
2021/04/01 21:36:16;;;;;;;5.57;3.30;;;;;;;15.29;41.88;100585.84;10328387;28;20058;-59
2021/04/01 21:41:17;;;;;;;6.20;3.17;;;;;;;15.09;41.39;100582.38;10323129;28;20046;-60
2021/04/01 21:46:18;;;;;;;7.35;3.78;;;;;;;14.81;40.97;100579.59;10340853;28;20665;-60
2021/04/01 21:51:19;;;;;;;5.32;3.10;;;;;;;14.68;41.06;100587.09;10346081;28;20046;-59
2021/04/01 21:56:20;;;;;;;8.30;3.35;;;;;;;14.47;40.77;100598.78;10341140;28;20502;-60
2021/04/01 22:01:21;;;;;;;5.50;2.50;;;;;;;14.43;40.06;100594.69;10339026;28;20690;-59
2021/04/01 22:06:22;;;;;;;5.05;2.80;;;;;;;14.36;39.46;100612.28;10342936;28;20077;-64
2021/04/01 22:11:23;;;;;;;5.22;2.50;;;;;;;14.21;39.54;100621.72;10339460;28;20518;-60
2021/04/01 22:16:24;;;;;;;4.68;2.28;;;;;;;13.89;38.67;100620.09;10359132;22;20098;-58
2021/04/01 22:21:25;;;;;;;4.88;2.00;;;;;;;13.68;38.44;100637.06;10382823;28;20053;-57
2021/04/01 22:26:26;;;;;;;3.72;2.75;;;;;;;13.47;38.57;100644.28;10382260;28;20057;-57
2021/04/01 22:31:27;;;;;;;4.50;2.22;;;;;;;13.27;38.91;100633.44;10375898;28;20072;-60
2021/04/01 22:36:29;;;;;;;6.20;3.15;;;;;;;13.05;39.39;100656.66;10388967;28;20049;-58
2021/04/01 22:41:31;;;;;;;4.82;2.50;;;;;;;12.98;39.48;100660.81;10379255;28;20163;-59
2021/04/01 22:46:32;;;;;;;6.35;2.38;;;;;;;13.04;39.69;100670.13;10379839;28;20700;-60
2021/04/01 22:51:33;;;;;;;4.93;2.67;;;;;;;12.78;40.40;100669.66;10377221;28;20096;-57
2021/04/01 22:56:34;;;;;;;3.70;2.60;;;;;;;12.71;40.94;100667.47;10372125;28;20719;-57
2021/04/01 23:01:35;;;;;;;4.15;2.90;;;;;;;12.84;41.16;100672.66;10364680;28;20127;-60
2021/04/01 23:06:36;;;;;;;5.57;2.72;;;;;;;12.46;42.05;100647.31;10376768;28;20069;-57
2021/04/01 23:11:37;;;;;;;4.60;3.08;;;;;;;12.48;42.55;100673.88;10357869;28;20054;-58
2021/04/01 23:16:38;;;;;;;3.28;2.80;;;;;;;12.45;42.83;100674.13;10372600;28;20561;-57
2021/04/01 23:21:39;;;;;;;4.65;3.05;;;;;;;12.32;43.19;100672.44;10376217;28;20041;-57
2021/04/01 23:26:40;;;;;;;4.60;2.92;;;;;;;12.18;44.04;100668.22;10368874;28;20058;-59
2021/04/01 23:31:41;;;;;;;5.35;3.08;;;;;;;12.09;44.24;100657.47;10374025;28;20048;-57
2021/04/01 23:36:42;;;;;;;7.35;3.50;;;;;;;12.11;43.88;100676.88;10375754;28;20050;-59
2021/04/01 23:41:43;;;;;;;4.32;2.88;;;;;;;12.09;44.37;100668.16;10376899;28;20445;-60
2021/04/01 23:46:44;;;;;;;3.40;3.10;;;;;;;11.97;44.81;100673.47;10378124;28;20597;-59
2021/04/01 23:51:45;;;;;;;5.00;3.33;;;;;;;11.75;45.91;100676.13;10362371;28;20095;-60
2021/04/01 23:56:49;;;;;;;6.22;4.00;;;;;;;11.70;46.01;100675.66;10379512;28;20176;-57
